sensor_id;sensor_type;location;lat;lon;timestamp;P1;durP1;ratioP1;P2;durP2;ratioP2
7833;SDS011;3962;42.696;23.354;2022-11-20T00:00:54;10.00;;;7.77;;
7833;SDS011;3962;42.696;23.354;2022-11-20T00:03:23;10.67;;;6.00;;
7833;SDS011;3962;42.696;23.354;2022-11-20T00:05:50;10.20;;;5.30;;
7833;SDS011;3962;42.696;23.354;2022-11-20T00:08:17;6.37;;;4.30;;
7833;SDS011;3962;42.696;23.354;2022-11-20T00:13:18;9.83;;;5.80;;
7833;SDS011;3962;42.696;23.354;2022-11-20T00:15:56;10.53;;;6.10;;
7833;SDS011;3962;42.696;23.354;2022-11-20T00:21:03;8.07;;;5.47;;
7833;SDS011;3962;42.696;23.354;2022-11-20T00:23:30;9.33;;;5.60;;
7833;SDS011;3962;42.696;23.354;2022-11-20T00:28:29;8.47;;;5.70;;
7833;SDS011;3962;42.696;23.354;2022-11-20T00:31:00;8.37;;;4.83;;
7833;SDS011;3962;42.696;23.354;2022-11-20T00:33:30;8.10;;;5.00;;
7833;SDS011;3962;42.696;23.354;2022-11-20T00:36:02;8.30;;;3.63;;
7833;SDS011;3962;42.696;23.354;2022-11-20T00:38:30;6.30;;;4.23;;
7833;SDS011;3962;42.696;23.354;2022-11-20T00:40:58;6.53;;;4.13;;
7833;SDS011;3962;42.696;23.354;2022-11-20T00:43:27;5.67;;;4.47;;
7833;SDS011;3962;42.696;23.354;2022-11-20T00:45:57;7.17;;;4.00;;
7833;SDS011;3962;42.696;23.354;2022-11-20T00:48:31;6.00;;;3.90;;
7833;SDS011;3962;42.696;23.354;2022-11-20T00:51:01;7.23;;;4.53;;
7833;SDS011;3962;42.696;23.354;2022-11-20T00:53:30;3.67;;;2.97;;
7833;SDS011;3962;42.696;23.354;2022-11-20T00:55:57;6.13;;;3.23;;
7833;SDS011;3962;42.696;23.354;2022-11-20T01:01:03;4.47;;;2.47;;
7833;SDS011;3962;42.696;23.354;2022-11-20T01:03:36;5.13;;;2.07;;
7833;SDS011;3962;42.696;23.354;2022-11-20T01:06:08;3.77;;;1.77;;
7833;SDS011;3962;42.696;23.354;2022-11-20T01:08:44;4.70;;;2.57;;
7833;SDS011;3962;42.696;23.354;2022-11-20T01:11:26;3.03;;;2.30;;
7833;SDS011;3962;42.696;23.354;2022-11-20T01:14:03;4.83;;;2.40;;
7833;SDS011;3962;42.696;23.354;2022-11-20T01:16:32;5.77;;;2.40;;
7833;SDS011;3962;42.696;23.354;2022-11-20T01:19:18;5.57;;;2.40;;
7833;SDS011;3962;42.696;23.354;2022-11-20T01:21:49;3.07;;;2.63;;
7833;SDS011;3962;42.696;23.354;2022-11-20T01:24:18;2.60;;;2.00;;
7833;SDS011;3962;42.696;23.354;2022-11-20T01:26:49;3.13;;;2.23;;
7833;SDS011;3962;42.696;23.354;2022-11-20T01:29:17;2.37;;;1.60;;
7833;SDS011;3962;42.696;23.354;2022-11-20T01:31:45;2.57;;;1.77;;
7833;SDS011;3962;42.696;23.354;2022-11-20T01:40:29;1.87;;;1.40;;
7833;SDS011;3962;42.696;23.354;2022-11-20T01:42:59;4.17;;;1.63;;
7833;SDS011;3962;42.696;23.354;2022-11-20T01:48:43;4.07;;;3.00;;
7833;SDS011;3962;42.696;23.354;2022-11-20T01:51:17;3.10;;;2.53;;
7833;SDS011;3962;42.696;23.354;2022-11-20T01:54:07;3.47;;;2.33;;
7833;SDS011;3962;42.696;23.354;2022-11-20T01:56:42;2.23;;;2.03;;
7833;SDS011;3962;42.696;23.354;2022-11-20T01:59:19;7.40;;;2.00;;
7833;SDS011;3962;42.696;23.354;2022-11-20T02:01:59;3.30;;;1.87;;
7833;SDS011;3962;42.696;23.354;2022-11-20T02:04:28;2.53;;;1.90;;
7833;SDS011;3962;42.696;23.354;2022-11-20T02:07:00;4.17;;;1.60;;
7833;SDS011;3962;42.696;23.354;2022-11-20T02:09:35;3.03;;;1.33;;
7833;SDS011;3962;42.696;23.354;2022-11-20T02:12:03;2.27;;;1.77;;
7833;SDS011;3962;42.696;23.354;2022-11-20T02:17:00;1.47;;;1.37;;
7833;SDS011;3962;42.696;23.354;2022-11-20T02:19:28;2.93;;;1.53;;
7833;SDS011;3962;42.696;23.354;2022-11-20T02:22:00;3.57;;;1.73;;
7833;SDS011;3962;42.696;23.354;2022-11-20T02:24:35;4.20;;;1.90;;
7833;SDS011;3962;42.696;23.354;2022-11-20T02:27:03;4.30;;;1.47;;
7833;SDS011;3962;42.696;23.354;2022-11-20T02:29:36;1.20;;;1.10;;
7833;SDS011;3962;42.696;23.354;2022-11-20T02:32:17;1.60;;;1.50;;
7833;SDS011;3962;42.696;23.354;2022-11-20T02:50:19;1.77;;;1.27;;
7833;SDS011;3962;42.696;23.354;2022-11-20T02:52:46;1.70;;;1.20;;
7833;SDS011;3962;42.696;23.354;2022-11-20T02:55:17;1.70;;;1.17;;
7833;SDS011;3962;42.696;23.354;2022-11-20T02:57:45;1.73;;;1.03;;
7833;SDS011;3962;42.696;23.354;2022-11-20T03:03:01;1.80;;;1.00;;
7833;SDS011;3962;42.696;23.354;2022-11-20T03:05:29;4.13;;;2.03;;
7833;SDS011;3962;42.696;23.354;2022-11-20T03:08:02;1.27;;;0.90;;
7833;SDS011;3962;42.696;23.354;2022-11-20T03:10:32;2.33;;;1.20;;
7833;SDS011;3962;42.696;23.354;2022-11-20T03:12:59;1.57;;;1.40;;
7833;SDS011;3962;42.696;23.354;2022-11-20T03:17:59;3.60;;;1.30;;
7833;SDS011;3962;42.696;23.354;2022-11-20T03:23:30;4.17;;;1.40;;
7833;SDS011;3962;42.696;23.354;2022-11-20T03:26:09;2.33;;;1.10;;
7833;SDS011;3962;42.696;23.354;2022-11-20T03:28:40;1.67;;;1.23;;
7833;SDS011;3962;42.696;23.354;2022-11-20T03:31:12;3.90;;;1.30;;
7833;SDS011;3962;42.696;23.354;2022-11-20T03:33:52;2.40;;;1.50;;
7833;SDS011;3962;42.696;23.354;2022-11-20T03:36:19;1.33;;;1.23;;
7833;SDS011;3962;42.696;23.354;2022-11-20T03:38:52;1.67;;;1.50;;
7833;SDS011;3962;42.696;23.354;2022-11-20T03:41:25;2.27;;;1.40;;
7833;SDS011;3962;42.696;23.354;2022-11-20T03:43:55;2.00;;;1.10;;
7833;SDS011;3962;42.696;23.354;2022-11-20T03:49:02;1.20;;;1.00;;
7833;SDS011;3962;42.696;23.354;2022-11-20T03:51:32;2.07;;;1.40;;
7833;SDS011;3962;42.696;23.354;2022-11-20T03:54:12;3.23;;;1.20;;
7833;SDS011;3962;42.696;23.354;2022-11-20T03:56:41;2.67;;;1.30;;
7833;SDS011;3962;42.696;23.354;2022-11-20T03:59:09;3.87;;;1.30;;
7833;SDS011;3962;42.696;23.354;2022-11-20T04:01:36;2.07;;;1.27;;
7833;SDS011;3962;42.696;23.354;2022-11-20T04:04:15;2.97;;;1.40;;
7833;SDS011;3962;42.696;23.354;2022-11-20T04:06:51;1.90;;;1.30;;
7833;SDS011;3962;42.696;23.354;2022-11-20T04:09:18;2.17;;;1.30;;
7833;SDS011;3962;42.696;23.354;2022-11-20T04:11:47;2.13;;;1.43;;
7833;SDS011;3962;42.696;23.354;2022-11-20T04:17:10;3.67;;;1.57;;
7833;SDS011;3962;42.696;23.354;2022-11-20T04:19:39;2.60;;;1.27;;
7833;SDS011;3962;42.696;23.354;2022-11-20T04:22:06;4.90;;;1.83;;
7833;SDS011;3962;42.696;23.354;2022-11-20T04:24:34;3.13;;;1.70;;
7833;SDS011;3962;42.696;23.354;2022-11-20T04:27:06;2.60;;;1.20;;
7833;SDS011;3962;42.696;23.354;2022-11-20T04:29:40;3.53;;;1.40;;
7833;SDS011;3962;42.696;23.354;2022-11-20T04:32:07;3.60;;;1.60;;
7833;SDS011;3962;42.696;23.354;2022-11-20T04:34:35;2.80;;;1.30;;
7833;SDS011;3962;42.696;23.354;2022-11-20T04:37:10;2.33;;;1.70;;
7833;SDS011;3962;42.696;23.354;2022-11-20T04:39:39;3.00;;;1.83;;
7833;SDS011;3962;42.696;23.354;2022-11-20T04:42:10;3.77;;;1.50;;
7833;SDS011;3962;42.696;23.354;2022-11-20T04:44:58;2.63;;;1.20;;
7833;SDS011;3962;42.696;23.354;2022-11-20T04:47:25;3.07;;;1.30;;
7833;SDS011;3962;42.696;23.354;2022-11-20T04:49:52;1.57;;;1.33;;
7833;SDS011;3962;42.696;23.354;2022-11-20T04:52:20;3.13;;;1.50;;
7833;SDS011;3962;42.696;23.354;2022-11-20T04:54:49;4.27;;;1.50;;
7833;SDS011;3962;42.696;23.354;2022-11-20T04:57:20;3.73;;;1.43;;
7833;SDS011;3962;42.696;23.354;2022-11-20T05:02:41;1.97;;;1.37;;
7833;SDS011;3962;42.696;23.354;2022-11-20T05:05:09;1.83;;;1.23;;
7833;SDS011;3962;42.696;23.354;2022-11-20T05:07:36;2.83;;;1.60;;
7833;SDS011;3962;42.696;23.354;2022-11-20T05:10:03;1.30;;;1.00;;
7833;SDS011;3962;42.696;23.354;2022-11-20T05:12:32;4.83;;;1.33;;
7833;SDS011;3962;42.696;23.354;2022-11-20T05:14:59;2.17;;;1.50;;
7833;SDS011;3962;42.696;23.354;2022-11-20T05:17:26;3.37;;;1.03;;
7833;SDS011;3962;42.696;23.354;2022-11-20T05:19:52;2.73;;;1.50;;
7833;SDS011;3962;42.696;23.354;2022-11-20T05:22:19;1.87;;;1.37;;
7833;SDS011;3962;42.696;23.354;2022-11-20T05:24:46;2.63;;;1.40;;
7833;SDS011;3962;42.696;23.354;2022-11-20T05:27:13;2.27;;;1.30;;
7833;SDS011;3962;42.696;23.354;2022-11-20T05:29:41;10.67;;;2.03;;
7833;SDS011;3962;42.696;23.354;2022-11-20T05:32:08;1.63;;;1.20;;
7833;SDS011;3962;42.696;23.354;2022-11-20T05:34:34;3.80;;;1.83;;
7833;SDS011;3962;42.696;23.354;2022-11-20T05:37:02;4.17;;;1.77;;
7833;SDS011;3962;42.696;23.354;2022-11-20T05:39:29;3.60;;;1.40;;
7833;SDS011;3962;42.696;23.354;2022-11-20T05:41:55;3.00;;;1.90;;
7833;SDS011;3962;42.696;23.354;2022-11-20T05:44:36;4.70;;;2.40;;
7833;SDS011;3962;42.696;23.354;2022-11-20T05:47:04;4.20;;;2.10;;
7833;SDS011;3962;42.696;23.354;2022-11-20T05:49:31;2.97;;;2.07;;
7833;SDS011;3962;42.696;23.354;2022-11-20T05:51:58;5.23;;;2.10;;
7833;SDS011;3962;42.696;23.354;2022-11-20T05:54:25;6.90;;;2.17;;
7833;SDS011;3962;42.696;23.354;2022-11-20T05:56:52;6.27;;;2.20;;
7833;SDS011;3962;42.696;23.354;2022-11-20T05:59:19;6.17;;;2.50;;
7833;SDS011;3962;42.696;23.354;2022-11-20T06:01:46;6.10;;;2.43;;
7833;SDS011;3962;42.696;23.354;2022-11-20T06:04:14;2.93;;;2.07;;
7833;SDS011;3962;42.696;23.354;2022-11-20T06:06:40;3.17;;;1.70;;
7833;SDS011;3962;42.696;23.354;2022-11-20T06:09:07;2.27;;;1.60;;
7833;SDS011;3962;42.696;23.354;2022-11-20T06:11:34;1.60;;;1.30;;
7833;SDS011;3962;42.696;23.354;2022-11-20T06:14:01;2.73;;;2.30;;
7833;SDS011;3962;42.696;23.354;2022-11-20T06:16:28;4.07;;;1.40;;
7833;SDS011;3962;42.696;23.354;2022-11-20T06:18:54;4.37;;;1.90;;
7833;SDS011;3962;42.696;23.354;2022-11-20T06:21:23;3.17;;;1.80;;
7833;SDS011;3962;42.696;23.354;2022-11-20T06:23:50;3.53;;;1.40;;
7833;SDS011;3962;42.696;23.354;2022-11-20T06:26:19;2.30;;;1.40;;
7833;SDS011;3962;42.696;23.354;2022-11-20T06:28:47;3.90;;;1.50;;
7833;SDS011;3962;42.696;23.354;2022-11-20T06:31:16;4.57;;;1.60;;
7833;SDS011;3962;42.696;23.354;2022-11-20T06:33:44;3.90;;;1.40;;
7833;SDS011;3962;42.696;23.354;2022-11-20T06:36:12;4.10;;;1.50;;
7833;SDS011;3962;42.696;23.354;2022-11-20T06:38:42;3.63;;;1.70;;
7833;SDS011;3962;42.696;23.354;2022-11-20T06:41:10;4.73;;;1.97;;
7833;SDS011;3962;42.696;23.354;2022-11-20T06:43:38;5.17;;;2.40;;
7833;SDS011;3962;42.696;23.354;2022-11-20T06:46:05;5.23;;;2.40;;
7833;SDS011;3962;42.696;23.354;2022-11-20T06:48:32;8.50;;;3.03;;
7833;SDS011;3962;42.696;23.354;2022-11-20T06:50:59;4.90;;;2.30;;
7833;SDS011;3962;42.696;23.354;2022-11-20T06:53:28;3.90;;;2.00;;
7833;SDS011;3962;42.696;23.354;2022-11-20T06:55:57;5.83;;;2.17;;
7833;SDS011;3962;42.696;23.354;2022-11-20T06:58:25;4.70;;;2.03;;
7833;SDS011;3962;42.696;23.354;2022-11-20T07:00:53;4.83;;;2.97;;
7833;SDS011;3962;42.696;23.354;2022-11-20T07:03:20;5.00;;;2.30;;
7833;SDS011;3962;42.696;23.354;2022-11-20T07:05:54;4.30;;;2.10;;
7833;SDS011;3962;42.696;23.354;2022-11-20T07:08:21;5.20;;;1.60;;
7833;SDS011;3962;42.696;23.354;2022-11-20T07:10:48;2.53;;;1.70;;
7833;SDS011;3962;42.696;23.354;2022-11-20T07:13:16;3.53;;;1.53;;
7833;SDS011;3962;42.696;23.354;2022-11-20T07:15:43;4.00;;;1.30;;
7833;SDS011;3962;42.696;23.354;2022-11-20T07:18:09;1.37;;;1.27;;
7833;SDS011;3962;42.696;23.354;2022-11-20T07:20:36;2.37;;;1.43;;
7833;SDS011;3962;42.696;23.354;2022-11-20T07:23:03;2.53;;;1.20;;
7833;SDS011;3962;42.696;23.354;2022-11-20T07:25:30;2.90;;;2.00;;
7833;SDS011;3962;42.696;23.354;2022-11-20T07:27:57;4.93;;;1.80;;
7833;SDS011;3962;42.696;23.354;2022-11-20T07:30:25;7.37;;;1.90;;
7833;SDS011;3962;42.696;23.354;2022-11-20T07:32:52;3.33;;;1.97;;
7833;SDS011;3962;42.696;23.354;2022-11-20T07:35:20;6.30;;;2.50;;
7833;SDS011;3962;42.696;23.354;2022-11-20T07:37:47;5.87;;;2.33;;
7833;SDS011;3962;42.696;23.354;2022-11-20T07:40:14;4.93;;;2.40;;
7833;SDS011;3962;42.696;23.354;2022-11-20T07:42:46;9.50;;;3.80;;
7833;SDS011;3962;42.696;23.354;2022-11-20T07:45:14;8.37;;;3.20;;
7833;SDS011;3962;42.696;23.354;2022-11-20T07:47:42;5.20;;;2.50;;
7833;SDS011;3962;42.696;23.354;2022-11-20T07:50:09;8.70;;;3.90;;
7833;SDS011;3962;42.696;23.354;2022-11-20T07:52:36;7.63;;;4.23;;
7833;SDS011;3962;42.696;23.354;2022-11-20T07:55:03;5.57;;;3.20;;
7833;SDS011;3962;42.696;23.354;2022-11-20T07:57:30;10.40;;;4.30;;
7833;SDS011;3962;42.696;23.354;2022-11-20T07:59:57;19.43;;;5.77;;
7833;SDS011;3962;42.696;23.354;2022-11-20T08:02:24;6.73;;;3.43;;
7833;SDS011;3962;42.696;23.354;2022-11-20T08:04:52;4.47;;;2.80;;
7833;SDS011;3962;42.696;23.354;2022-11-20T08:07:19;6.30;;;3.20;;
7833;SDS011;3962;42.696;23.354;2022-11-20T08:09:46;5.83;;;2.90;;
7833;SDS011;3962;42.696;23.354;2022-11-20T08:12:16;7.10;;;2.90;;
7833;SDS011;3962;42.696;23.354;2022-11-20T08:15:02;4.90;;;2.60;;
7833;SDS011;3962;42.696;23.354;2022-11-20T08:17:30;7.27;;;2.80;;
7833;SDS011;3962;42.696;23.354;2022-11-20T08:19:59;7.50;;;3.37;;
7833;SDS011;3962;42.696;23.354;2022-11-20T08:22:26;8.60;;;3.07;;
7833;SDS011;3962;42.696;23.354;2022-11-20T08:24:53;5.13;;;2.50;;
7833;SDS011;3962;42.696;23.354;2022-11-20T08:27:20;6.10;;;1.97;;
7833;SDS011;3962;42.696;23.354;2022-11-20T08:29:47;9.50;;;3.03;;
7833;SDS011;3962;42.696;23.354;2022-11-20T08:32:13;4.77;;;2.70;;
7833;SDS011;3962;42.696;23.354;2022-11-20T08:34:40;7.87;;;2.63;;
7833;SDS011;3962;42.696;23.354;2022-11-20T08:37:08;7.10;;;3.50;;
7833;SDS011;3962;42.696;23.354;2022-11-20T08:39:35;11.47;;;5.33;;
7833;SDS011;3962;42.696;23.354;2022-11-20T08:42:02;9.30;;;3.03;;
7833;SDS011;3962;42.696;23.354;2022-11-20T08:44:33;5.77;;;3.30;;
7833;SDS011;3962;42.696;23.354;2022-11-20T08:47:00;8.20;;;3.10;;
7833;SDS011;3962;42.696;23.354;2022-11-20T08:49:27;7.70;;;3.40;;
7833;SDS011;3962;42.696;23.354;2022-11-20T08:51:54;6.13;;;3.60;;
7833;SDS011;3962;42.696;23.354;2022-11-20T08:54:22;8.13;;;2.30;;
7833;SDS011;3962;42.696;23.354;2022-11-20T08:56:49;3.83;;;2.30;;
7833;SDS011;3962;42.696;23.354;2022-11-20T08:59:15;3.43;;;1.83;;
7833;SDS011;3962;42.696;23.354;2022-11-20T09:01:42;3.20;;;1.70;;
7833;SDS011;3962;42.696;23.354;2022-11-20T09:04:11;3.40;;;2.20;;
7833;SDS011;3962;42.696;23.354;2022-11-20T09:06:40;3.47;;;2.30;;
7833;SDS011;3962;42.696;23.354;2022-11-20T09:09:11;3.67;;;2.20;;
7833;SDS011;3962;42.696;23.354;2022-11-20T09:11:42;4.03;;;2.50;;
7833;SDS011;3962;42.696;23.354;2022-11-20T09:14:09;4.40;;;2.20;;
7833;SDS011;3962;42.696;23.354;2022-11-20T09:16:44;4.40;;;2.90;;
7833;SDS011;3962;42.696;23.354;2022-11-20T09:19:21;11.47;;;2.30;;
7833;SDS011;3962;42.696;23.354;2022-11-20T09:21:48;5.13;;;2.70;;
7833;SDS011;3962;42.696;23.354;2022-11-20T09:24:15;4.57;;;2.37;;
7833;SDS011;3962;42.696;23.354;2022-11-20T09:26:43;5.13;;;2.57;;
7833;SDS011;3962;42.696;23.354;2022-11-20T09:29:10;3.67;;;2.53;;
7833;SDS011;3962;42.696;23.354;2022-11-20T09:31:37;2.40;;;1.83;;
7833;SDS011;3962;42.696;23.354;2022-11-20T09:34:04;2.60;;;1.83;;
7833;SDS011;3962;42.696;23.354;2022-11-20T09:36:31;3.97;;;1.70;;
7833;SDS011;3962;42.696;23.354;2022-11-20T09:38:58;1.83;;;1.53;;
7833;SDS011;3962;42.696;23.354;2022-11-20T09:41:30;1.97;;;1.57;;
7833;SDS011;3962;42.696;23.354;2022-11-20T09:44:15;2.37;;;1.60;;
7833;SDS011;3962;42.696;23.354;2022-11-20T09:46:54;3.77;;;1.87;;
7833;SDS011;3962;42.696;23.354;2022-11-20T09:49:28;3.23;;;2.00;;
7833;SDS011;3962;42.696;23.354;2022-11-20T09:52:06;7.00;;;3.50;;
7833;SDS011;3962;42.696;23.354;2022-11-20T09:54:42;4.43;;;2.63;;
7833;SDS011;3962;42.696;23.354;2022-11-20T09:57:11;6.03;;;3.40;;
7833;SDS011;3962;42.696;23.354;2022-11-20T09:59:42;5.70;;;2.80;;
7833;SDS011;3962;42.696;23.354;2022-11-20T10:02:14;4.23;;;2.60;;
7833;SDS011;3962;42.696;23.354;2022-11-20T10:04:44;5.63;;;3.00;;
7833;SDS011;3962;42.696;23.354;2022-11-20T10:07:16;10.17;;;3.90;;
7833;SDS011;3962;42.696;23.354;2022-11-20T10:09:49;10.77;;;4.57;;
7833;SDS011;3962;42.696;23.354;2022-11-20T10:12:18;11.90;;;5.07;;
7833;SDS011;3962;42.696;23.354;2022-11-20T10:14:57;9.50;;;4.93;;
7833;SDS011;3962;42.696;23.354;2022-11-20T10:17:46;8.63;;;4.30;;
7833;SDS011;3962;42.696;23.354;2022-11-20T10:20:26;6.80;;;4.10;;
7833;SDS011;3962;42.696;23.354;2022-11-20T10:23:05;5.97;;;3.63;;
7833;SDS011;3962;42.696;23.354;2022-11-20T10:25:50;6.50;;;3.80;;
7833;SDS011;3962;42.696;23.354;2022-11-20T10:28:27;5.37;;;3.53;;
7833;SDS011;3962;42.696;23.354;2022-11-20T10:31:09;9.67;;;4.37;;
7833;SDS011;3962;42.696;23.354;2022-11-20T10:33:41;4.80;;;3.50;;
7833;SDS011;3962;42.696;23.354;2022-11-20T10:36:13;7.87;;;3.60;;
7833;SDS011;3962;42.696;23.354;2022-11-20T10:38:44;5.63;;;3.57;;
7833;SDS011;3962;42.696;23.354;2022-11-20T10:41:20;8.83;;;3.90;;
7833;SDS011;3962;42.696;23.354;2022-11-20T10:43:54;7.47;;;4.07;;
7833;SDS011;3962;42.696;23.354;2022-11-20T10:46:32;6.07;;;4.00;;
7833;SDS011;3962;42.696;23.354;2022-11-20T10:49:06;11.63;;;3.90;;
7833;SDS011;3962;42.696;23.354;2022-11-20T10:51:40;10.13;;;4.10;;
7833;SDS011;3962;42.696;23.354;2022-11-20T10:54:18;8.70;;;4.40;;
7833;SDS011;3962;42.696;23.354;2022-11-20T10:56:54;11.93;;;5.00;;
7833;SDS011;3962;42.696;23.354;2022-11-20T10:59:38;13.07;;;7.17;;
7833;SDS011;3962;42.696;23.354;2022-11-20T11:02:18;9.30;;;6.00;;
7833;SDS011;3962;42.696;23.354;2022-11-20T11:04:46;11.27;;;6.17;;
7833;SDS011;3962;42.696;23.354;2022-11-20T11:07:15;14.23;;;7.63;;
7833;SDS011;3962;42.696;23.354;2022-11-20T11:09:44;10.10;;;6.20;;
7833;SDS011;3962;42.696;23.354;2022-11-20T11:12:14;6.80;;;3.20;;
7833;SDS011;3962;42.696;23.354;2022-11-20T11:14:42;7.93;;;2.57;;
7833;SDS011;3962;42.696;23.354;2022-11-20T11:17:19;7.10;;;2.33;;
7833;SDS011;3962;42.696;23.354;2022-11-20T11:19:58;3.40;;;1.90;;
7833;SDS011;3962;42.696;23.354;2022-11-20T11:22:26;3.07;;;2.00;;
7833;SDS011;3962;42.696;23.354;2022-11-20T11:24:54;4.90;;;1.90;;
7833;SDS011;3962;42.696;23.354;2022-11-20T11:27:21;2.70;;;1.60;;
7833;SDS011;3962;42.696;23.354;2022-11-20T11:29:48;1.50;;;1.40;;
7833;SDS011;3962;42.696;23.354;2022-11-20T11:32:17;3.17;;;1.50;;
7833;SDS011;3962;42.696;23.354;2022-11-20T11:34:58;3.67;;;1.80;;
7833;SDS011;3962;42.696;23.354;2022-11-20T11:37:26;5.77;;;1.80;;
7833;SDS011;3962;42.696;23.354;2022-11-20T11:40:00;3.63;;;1.90;;
7833;SDS011;3962;42.696;23.354;2022-11-20T11:42:27;4.77;;;2.33;;
7833;SDS011;3962;42.696;23.354;2022-11-20T11:44:55;4.30;;;2.20;;
7833;SDS011;3962;42.696;23.354;2022-11-20T11:47:35;3.80;;;1.83;;
7833;SDS011;3962;42.696;23.354;2022-11-20T11:50:14;2.57;;;1.80;;
7833;SDS011;3962;42.696;23.354;2022-11-20T11:52:44;4.20;;;1.60;;
7833;SDS011;3962;42.696;23.354;2022-11-20T11:55:17;7.30;;;1.97;;
7833;SDS011;3962;42.696;23.354;2022-11-20T11:57:51;4.37;;;2.30;;
7833;SDS011;3962;42.696;23.354;2022-11-20T12:00:23;6.77;;;2.27;;
7833;SDS011;3962;42.696;23.354;2022-11-20T12:02:57;8.07;;;2.00;;
7833;SDS011;3962;42.696;23.354;2022-11-20T12:05:38;4.13;;;1.83;;
7833;SDS011;3962;42.696;23.354;2022-11-20T12:08:11;5.30;;;2.20;;
7833;SDS011;3962;42.696;23.354;2022-11-20T12:10:45;3.53;;;1.70;;
7833;SDS011;3962;42.696;23.354;2022-11-20T12:13:18;4.33;;;1.50;;
7833;SDS011;3962;42.696;23.354;2022-11-20T12:15:52;2.53;;;1.60;;
7833;SDS011;3962;42.696;23.354;2022-11-20T12:18:21;4.67;;;1.60;;
7833;SDS011;3962;42.696;23.354;2022-11-20T12:20:53;6.63;;;1.90;;
7833;SDS011;3962;42.696;23.354;2022-11-20T12:23:28;4.20;;;1.50;;
7833;SDS011;3962;42.696;23.354;2022-11-20T12:26:03;2.43;;;1.40;;
7833;SDS011;3962;42.696;23.354;2022-11-20T12:28:40;2.90;;;1.60;;
7833;SDS011;3962;42.696;23.354;2022-11-20T12:37:10;4.37;;;1.47;;
7833;SDS011;3962;42.696;23.354;2022-11-20T12:39:46;1.93;;;1.57;;
7833;SDS011;3962;42.696;23.354;2022-11-20T12:42:23;4.20;;;1.50;;
7833;SDS011;3962;42.696;23.354;2022-11-20T12:45:20;3.50;;;1.57;;
7833;SDS011;3962;42.696;23.354;2022-11-20T12:48:10;6.27;;;2.43;;
7833;SDS011;3962;42.696;23.354;2022-11-20T12:50:49;4.63;;;2.40;;
7833;SDS011;3962;42.696;23.354;2022-11-20T12:53:39;5.43;;;2.70;;
7833;SDS011;3962;42.696;23.354;2022-11-20T12:56:17;8.37;;;2.97;;
7833;SDS011;3962;42.696;23.354;2022-11-20T12:58:56;4.43;;;2.03;;
7833;SDS011;3962;42.696;23.354;2022-11-20T13:01:35;4.20;;;2.33;;
7833;SDS011;3962;42.696;23.354;2022-11-20T13:04:09;6.80;;;3.27;;
7833;SDS011;3962;42.696;23.354;2022-11-20T13:06:45;7.53;;;4.33;;
7833;SDS011;3962;42.696;23.354;2022-11-20T13:09:15;6.10;;;2.90;;
7833;SDS011;3962;42.696;23.354;2022-11-20T13:11:47;4.37;;;2.43;;
7833;SDS011;3962;42.696;23.354;2022-11-20T13:14:28;4.17;;;2.23;;
7833;SDS011;3962;42.696;23.354;2022-11-20T13:17:00;3.30;;;1.97;;
7833;SDS011;3962;42.696;23.354;2022-11-20T13:19:32;5.37;;;2.27;;
7833;SDS011;3962;42.696;23.354;2022-11-20T13:21:59;6.83;;;2.57;;
7833;SDS011;3962;42.696;23.354;2022-11-20T13:24:28;9.03;;;3.93;;
7833;SDS011;3962;42.696;23.354;2022-11-20T13:27:03;8.80;;;3.83;;
7833;SDS011;3962;42.696;23.354;2022-11-20T13:29:44;7.47;;;3.70;;
7833;SDS011;3962;42.696;23.354;2022-11-20T13:32:13;9.90;;;2.60;;
7833;SDS011;3962;42.696;23.354;2022-11-20T13:34:51;5.13;;;2.70;;
7833;SDS011;3962;42.696;23.354;2022-11-20T13:37:25;8.93;;;3.63;;
7833;SDS011;3962;42.696;23.354;2022-11-20T13:40:10;7.80;;;3.70;;
7833;SDS011;3962;42.696;23.354;2022-11-20T13:42:39;10.57;;;4.20;;
7833;SDS011;3962;42.696;23.354;2022-11-20T13:45:11;7.90;;;3.97;;
7833;SDS011;3962;42.696;23.354;2022-11-20T13:47:48;6.73;;;2.83;;
7833;SDS011;3962;42.696;23.354;2022-11-20T13:50:16;6.93;;;3.60;;
7833;SDS011;3962;42.696;23.354;2022-11-20T13:52:46;7.13;;;3.63;;
7833;SDS011;3962;42.696;23.354;2022-11-20T13:55:23;7.50;;;3.23;;
7833;SDS011;3962;42.696;23.354;2022-11-20T13:58:05;8.63;;;3.70;;
7833;SDS011;3962;42.696;23.354;2022-11-20T14:00:44;5.43;;;3.17;;
7833;SDS011;3962;42.696;23.354;2022-11-20T14:03:17;8.60;;;2.93;;
7833;SDS011;3962;42.696;23.354;2022-11-20T14:05:49;6.10;;;4.00;;
7833;SDS011;3962;42.696;23.354;2022-11-20T14:08:21;5.90;;;3.97;;
7833;SDS011;3962;42.696;23.354;2022-11-20T14:11:03;8.13;;;3.60;;
7833;SDS011;3962;42.696;23.354;2022-11-20T14:13:31;9.47;;;4.30;;
7833;SDS011;3962;42.696;23.354;2022-11-20T14:15:58;8.17;;;4.07;;
7833;SDS011;3962;42.696;23.354;2022-11-20T14:18:25;9.67;;;5.07;;
7833;SDS011;3962;42.696;23.354;2022-11-20T14:20:53;7.80;;;4.90;;
7833;SDS011;3962;42.696;23.354;2022-11-20T14:23:23;9.27;;;5.50;;
7833;SDS011;3962;42.696;23.354;2022-11-20T14:25:52;10.70;;;5.07;;
7833;SDS011;3962;42.696;23.354;2022-11-20T14:28:24;12.30;;;6.90;;
7833;SDS011;3962;42.696;23.354;2022-11-20T14:30:52;12.43;;;6.87;;
7833;SDS011;3962;42.696;23.354;2022-11-20T14:33:20;12.00;;;6.17;;
7833;SDS011;3962;42.696;23.354;2022-11-20T14:35:50;13.27;;;6.83;;
7833;SDS011;3962;42.696;23.354;2022-11-20T14:38:20;15.03;;;6.67;;
7833;SDS011;3962;42.696;23.354;2022-11-20T14:40:50;12.87;;;7.07;;
7833;SDS011;3962;42.696;23.354;2022-11-20T14:43:18;14.20;;;6.87;;
7833;SDS011;3962;42.696;23.354;2022-11-20T14:45:50;12.00;;;6.73;;
7833;SDS011;3962;42.696;23.354;2022-11-20T14:48:23;13.83;;;6.57;;
7833;SDS011;3962;42.696;23.354;2022-11-20T14:50:54;11.13;;;6.77;;
7833;SDS011;3962;42.696;23.354;2022-11-20T14:53:22;10.97;;;7.03;;
7833;SDS011;3962;42.696;23.354;2022-11-20T14:55:54;10.00;;;6.43;;
7833;SDS011;3962;42.696;23.354;2022-11-20T14:58:24;12.57;;;7.07;;
7833;SDS011;3962;42.696;23.354;2022-11-20T15:00:53;12.03;;;7.70;;
7833;SDS011;3962;42.696;23.354;2022-11-20T15:03:22;16.27;;;7.80;;
7833;SDS011;3962;42.696;23.354;2022-11-20T15:05:50;23.20;;;13.77;;
7833;SDS011;3962;42.696;23.354;2022-11-20T15:08:18;26.17;;;13.63;;
7833;SDS011;3962;42.696;23.354;2022-11-20T15:10:49;26.50;;;13.77;;
7833;SDS011;3962;42.696;23.354;2022-11-20T15:13:26;15.77;;;9.60;;
7833;SDS011;3962;42.696;23.354;2022-11-20T15:15:58;22.20;;;12.77;;
7833;SDS011;3962;42.696;23.354;2022-11-20T15:18:28;12.97;;;7.03;;
7833;SDS011;3962;42.696;23.354;2022-11-20T15:21:00;11.47;;;6.33;;
7833;SDS011;3962;42.696;23.354;2022-11-20T15:23:30;12.50;;;6.00;;
7833;SDS011;3962;42.696;23.354;2022-11-20T15:25:59;9.33;;;5.83;;
7833;SDS011;3962;42.696;23.354;2022-11-20T15:28:30;6.93;;;3.83;;
7833;SDS011;3962;42.696;23.354;2022-11-20T15:31:02;7.13;;;3.30;;
7833;SDS011;3962;42.696;23.354;2022-11-20T15:33:33;7.47;;;3.73;;
7833;SDS011;3962;42.696;23.354;2022-11-20T15:36:02;7.40;;;3.53;;
7833;SDS011;3962;42.696;23.354;2022-11-20T15:38:31;6.80;;;3.30;;
7833;SDS011;3962;42.696;23.354;2022-11-20T15:41:01;6.40;;;3.80;;
7833;SDS011;3962;42.696;23.354;2022-11-20T15:43:30;7.07;;;4.60;;
7833;SDS011;3962;42.696;23.354;2022-11-20T15:45:59;8.40;;;4.10;;
7833;SDS011;3962;42.696;23.354;2022-11-20T15:48:29;4.87;;;3.60;;
7833;SDS011;3962;42.696;23.354;2022-11-20T15:51:01;8.43;;;4.27;;
7833;SDS011;3962;42.696;23.354;2022-11-20T15:53:35;6.43;;;2.93;;
7833;SDS011;3962;42.696;23.354;2022-11-20T15:56:06;6.20;;;3.30;;
7833;SDS011;3962;42.696;23.354;2022-11-20T15:58:40;6.73;;;3.03;;
7833;SDS011;3962;42.696;23.354;2022-11-20T16:01:11;5.63;;;2.63;;
7833;SDS011;3962;42.696;23.354;2022-11-20T16:03:41;8.17;;;4.13;;
7833;SDS011;3962;42.696;23.354;2022-11-20T16:06:10;11.00;;;5.60;;
7833;SDS011;3962;42.696;23.354;2022-11-20T16:08:37;10.43;;;5.30;;
7833;SDS011;3962;42.696;23.354;2022-11-20T16:11:06;4.80;;;2.93;;
7833;SDS011;3962;42.696;23.354;2022-11-20T16:13:36;4.07;;;2.67;;
7833;SDS011;3962;42.696;23.354;2022-11-20T16:16:25;5.47;;;3.03;;
7833;SDS011;3962;42.696;23.354;2022-11-20T16:18:57;7.33;;;3.93;;
7833;SDS011;3962;42.696;23.354;2022-11-20T16:21:25;4.90;;;3.83;;
7833;SDS011;3962;42.696;23.354;2022-11-20T16:23:59;4.70;;;3.20;;